Time;durP1;ratioP1;P1;durP2;ratioP2;P2;SDS_P1;SDS_P2;PMS_P1;PMS_P2;Temp;Humidity;BMP_temperature;BMP_pressure;BME280_temperature;BME280_humidity;BME280_pressure;Samples;Min_cycle;Max_cycle;Signal;HPM_P1;HPM_P2
2021/12/06 00:01:16;;;;;;;4.20;2.60;;;-2.10;99.90;;;;;;2090574;28;20184;-66
2021/12/06 00:02:22;;;;;;;3.28;1.90;;;-2.10;99.90;;;;;;2082368;28;20172;-66
2021/12/06 00:03:39;;;;;;;2.78;1.90;;;-2.10;99.90;;;;;;2082233;28;20215;-66
2021/12/06 00:04:40;;;;;;;4.60;2.03;;;-2.00;99.90;;;;;;2082734;28;20544;-66
2021/12/06 00:05:41;;;;;;;3.17;2.53;;;-2.00;99.90;;;;;;2082172;28;20262;-66
2021/12/06 00:06:47;;;;;;;3.67;2.47;;;-2.00;99.90;;;;;;2081616;28;20699;-66
2021/12/06 00:07:48;;;;;;;4.85;3.00;;;-2.00;99.90;;;;;;2082780;28;20370;-66
2021/12/06 00:08:48;;;;;;;4.43;2.97;;;-2.00;99.80;;;;;;2082493;28;20197;-65
2021/12/06 00:09:50;;;;;;;4.13;2.83;;;-2.00;99.70;;;;;;2082696;28;20188;-65
2021/12/06 00:10:52;;;;;;;4.85;2.95;;;-2.00;99.80;;;;;;2082651;28;20572;-65
2021/12/06 00:11:59;;;;;;;3.65;2.70;;;-2.00;99.80;;;;;;2082791;28;20266;-65
2021/12/06 00:13:00;;;;;;;3.08;2.28;;;-2.00;99.80;;;;;;2082799;28;20248;-65
2021/12/06 00:14:03;;;;;;;2.53;2.03;;;-2.10;99.90;;;;;;2082758;28;20191;-66
2021/12/06 00:15:05;;;;;;;3.38;1.88;;;-2.10;99.90;;;;;;2081909;28;20242;-65
2021/12/06 00:16:12;;;;;;;2.42;1.65;;;-2.00;99.90;;;;;;2082046;28;20217;-64
2021/12/06 00:17:16;;;;;;;2.28;1.70;;;-2.00;99.80;;;;;;2082499;28;20211;-65
2021/12/06 00:18:19;;;;;;;2.70;2.00;;;-2.00;99.80;;;;;;2082901;28;20184;-65
2021/12/06 00:19:20;;;;;;;2.97;2.00;;;-2.00;99.80;;;;;;2082561;28;20229;-65
2021/12/06 00:20:20;;;;;;;2.95;1.70;;;-2.00;99.80;;;;;;2090477;28;20245;-65
2021/12/06 00:21:23;;;;;;;6.10;2.43;;;-2.00;99.70;;;;;;2090478;28;20245;-65
2021/12/06 00:22:24;;;;;;;2.45;2.00;;;-1.90;99.70;;;;;;2082796;28;20652;-65
2021/12/06 00:23:25;;;;;;;2.63;1.77;;;-2.00;99.60;;;;;;2082611;28;20177;-64
2021/12/06 00:24:26;;;;;;;3.23;2.10;;;-1.90;99.50;;;;;;2082683;28;20176;-64
2021/12/06 00:25:27;;;;;;;2.72;2.03;;;-2.00;99.40;;;;;;2082563;28;20187;-64
2021/12/06 00:26:28;;;;;;;3.83;2.70;;;-2.00;99.30;;;;;;2090064;28;20218;-63
2021/12/06 00:27:29;;;;;;;4.10;2.20;;;-2.00;99.50;;;;;;2090012;28;20203;-65
2021/12/06 00:28:30;;;;;;;2.83;2.10;;;-2.00;99.10;;;;;;2082130;28;20401;-64
2021/12/06 00:29:30;;;;;;;3.27;2.40;;;-2.00;99.00;;;;;;2082796;28;20180;-64
2021/12/06 00:30:31;;;;;;;3.63;2.20;;;-2.10;98.70;;;;;;2081799;28;20704;-65
2021/12/06 00:31:34;;;;;;;2.50;2.00;;;-2.10;98.60;;;;;;2082075;28;20200;-64
2021/12/06 00:32:34;;;;;;;4.40;2.33;;;-2.10;98.50;;;;;;2082635;28;20180;-65
2021/12/06 00:33:36;;;;;;;3.13;2.10;;;-2.20;98.70;;;;;;2090212;28;20569;-65
2021/12/06 00:34:38;;;;;;;4.25;2.10;;;-2.20;98.70;;;;;;2090166;28;20183;-65
2021/12/06 00:35:39;;;;;;;3.38;1.90;;;-2.20;98.70;;;;;;2082425;28;20275;-65
2021/12/06 00:36:51;;;;;;;2.23;1.90;;;-2.20;98.70;;;;;;2082141;28;20355;-62
2021/12/06 00:37:58;;;;;;;1.70;1.30;;;-2.30;98.50;;;;;;2082503;28;20169;-65
2021/12/06 00:39:02;;;;;;;3.88;1.90;;;-2.30;98.60;;;;;;2090138;28;20175;-64
2021/12/06 00:40:07;;;;;;;4.07;1.75;;;-2.30;98.80;;;;;;2088971;28;20181;-64
2021/12/06 00:41:08;;;;;;;2.78;2.03;;;-2.40;98.90;;;;;;2082459;28;20183;-65
2021/12/06 00:42:10;;;;;;;2.37;1.90;;;-2.40;99.00;;;;;;2082348;28;20181;-64
2021/12/06 00:43:11;;;;;;;2.05;1.60;;;-2.50;99.00;;;;;;2090078;28;20185;-64
2021/12/06 00:44:12;;;;;;;2.47;1.80;;;-2.50;99.10;;;;;;2090015;28;20189;-65
2021/12/06 00:45:12;;;;;;;2.30;1.80;;;-2.50;99.10;;;;;;2082467;28;20522;-64
2021/12/06 00:46:13;;;;;;;2.63;1.83;;;-2.50;99.10;;;;;;2082177;28;20191;-65
2021/12/06 00:47:14;;;;;;;2.17;1.40;;;-2.50;99.20;;;;;;2082074;28;20207;-65
2021/12/06 00:48:15;;;;;;;2.70;1.37;;;-2.60;98.90;;;;;;2081586;28;20198;-65
2021/12/06 00:49:15;;;;;;;2.30;1.37;;;-2.60;99.00;;;;;;2081931;28;20189;-65
2021/12/06 00:50:19;;;;;;;1.77;1.50;;;-2.60;99.20;;;;;;2082397;28;20220;-63
2021/12/06 00:51:20;;;;;;;2.25;1.30;;;-2.60;99.40;;;;;;2081766;28;20210;-65
2021/12/06 00:52:21;;;;;;;1.50;1.40;;;-2.60;99.20;;;;;;2081608;28;20183;-65
2021/12/06 00:53:22;;;;;;;3.63;1.80;;;-2.60;99.20;;;;;;2082384;28;20184;-64
2021/12/06 00:54:23;;;;;;;2.20;1.40;;;-2.70;99.30;;;;;;2082644;28;20267;-65
2021/12/06 00:55:25;;;;;;;3.07;1.60;;;-2.70;99.10;;;;;;2082448;28;20260;-65
2021/12/06 00:56:26;;;;;;;2.03;1.25;;;-2.70;99.10;;;;;;2082497;28;20264;-65
2021/12/06 00:57:27;;;;;;;2.85;1.40;;;-2.70;98.90;;;;;;2082509;28;20343;-64
2021/12/06 00:58:27;;;;;;;2.33;1.20;;;-2.80;98.70;;;;;;2081811;28;20275;-64
2021/12/06 00:59:28;;;;;;;1.93;1.30;;;-2.80;98.60;;;;;;2082039;28;20176;-65
2021/12/06 01:00:51;;;;;;;2.88;1.35;;;-2.90;98.60;;;;;;2085419;28;20183;-65
2021/12/06 01:01:54;;;;;;;1.50;1.30;;;-2.90;98.90;;;;;;2082442;28;20243;-65
2021/12/06 01:02:56;;;;;;;2.22;1.67;;;-2.90;99.00;;;;;;2082397;28;20565;-63
2021/12/06 01:03:57;;;;;;;2.35;1.60;;;-2.90;99.00;;;;;;2082322;28;20656;-65
2021/12/06 01:04:58;;;;;;;3.10;1.70;;;-3.00;99.00;;;;;;2081735;28;20257;-65
2021/12/06 01:05:59;;;;;;;2.37;1.53;;;-3.00;99.00;;;;;;2081652;28;20640;-63
2021/12/06 01:06:59;;;;;;;3.23;1.67;;;-3.00;98.90;;;;;;2082066;28;20713;-65
2021/12/06 01:08:00;;;;;;;1.83;1.00;;;-3.00;99.10;;;;;;2081596;28;20432;-65
2021/12/06 01:09:01;;;;;;;1.53;1.40;;;-3.10;99.20;;;;;;2073370;28;20593;-65
2021/12/06 01:10:04;;;;;;;1.70;1.47;;;-3.10;99.20;;;;;;2081564;28;20175;-65
2021/12/06 01:11:08;;;;;;;2.40;1.65;;;-3.10;99.00;;;;;;2082332;28;20175;-65
2021/12/06 01:12:10;;;;;;;1.75;1.65;;;-3.10;99.10;;;;;;2082336;28;20194;-65
2021/12/06 01:13:11;;;;;;;1.95;1.40;;;-3.20;99.10;;;;;;2073199;28;20215;-64
2021/12/06 01:14:12;;;;;;;1.83;1.13;;;-3.20;99.10;;;;;;2073316;28;20187;-65
2021/12/06 01:15:13;;;;;;;2.43;1.60;;;-3.20;99.40;;;;;;2086164;28;20263;-65
2021/12/06 01:16:13;;;;;;;1.50;1.10;;;-3.20;98.90;;;;;;2090296;28;20209;-65
2021/12/06 01:17:14;;;;;;;1.43;1.30;;;-3.20;99.00;;;;;;2090067;28;20288;-65
2021/12/06 01:18:18;;;;;;;2.20;1.30;;;-3.30;99.10;;;;;;2090391;28;20192;-64
2021/12/06 01:19:19;;;;;;;1.33;1.10;;;-3.30;99.30;;;;;;2090298;28;20174;-65
2021/12/06 01:20:22;;;;;;;2.90;1.50;;;-3.30;99.30;;;;;;2090286;28;20236;-65
2021/12/06 01:21:43;;;;;;;4.47;1.40;;;-3.30;99.30;;;;;;2089774;28;20551;-64
2021/12/06 01:22:52;;;;;;;1.20;1.02;;;-3.30;99.40;;;;;;2090116;28;20632;-65
2021/12/06 01:23:58;;;;;;;3.35;1.70;;;-3.30;99.50;;;;;;2090354;28;20694;-64
2021/12/06 01:25:07;;;;;;;1.58;1.48;;;-3.40;99.70;;;;;;2090310;28;20169;-63
2021/12/06 01:26:27;;;;;;;2.30;1.40;;;-3.40;99.80;;;;;;2090227;28;20193;-65
2021/12/06 01:28:11;;;;;;;2.70;1.60;;;-3.50;99.70;;;;;;2089314;28;20182;-65
2021/12/06 01:31:46;;;;;;;3.35;1.80;;;-3.60;99.80;;;;;;2090331;28;20186;-65
2021/12/06 01:39:26;;;;;;;2.53;1.60;;;-3.60;99.90;;;;;;2089700;28;20192;-65
2021/12/06 01:40:27;;;;;;;2.75;1.60;;;-3.60;99.90;;;;;;2083456;28;20185;-65
2021/12/06 01:41:29;;;;;;;2.47;1.50;;;-3.60;99.90;;;;;;2081863;28;20197;-64
2021/12/06 01:42:30;;;;;;;2.47;1.40;;;-3.60;99.90;;;;;;2081638;28;20191;-65
2021/12/06 01:43:31;;;;;;;2.10;1.50;;;-3.60;99.90;;;;;;2089545;28;20178;-65
2021/12/06 01:44:36;;;;;;;2.30;1.30;;;-3.60;99.90;;;;;;2090145;28;20234;-65
2021/12/06 01:45:37;;;;;;;3.30;1.33;;;-3.60;99.90;;;;;;2089535;28;20162;-65
2021/12/06 01:46:56;;;;;;;1.50;1.20;;;-3.60;99.90;;;;;;2089149;28;20190;-65
2021/12/06 01:47:57;;;;;;;1.58;1.20;;;-3.60;99.90;;;;;;2089581;28;20217;-65
2021/12/06 01:48:58;;;;;;;4.97;1.40;;;-3.60;99.90;;;;;;2089453;28;20526;-65
2021/12/06 01:50:14;;;;;;;1.60;1.10;;;-3.60;99.90;;;;;;2090066;28;20173;-65
2021/12/06 01:51:14;;;;;;;2.08;1.52;;;-3.60;99.90;;;;;;2090026;28;20162;-64
2021/12/06 01:52:24;;;;;;;2.60;1.43;;;-3.60;99.90;;;;;;2090311;28;20208;-65
2021/12/06 01:53:24;;;;;;;4.13;1.60;;;-3.60;99.90;;;;;;2090111;28;20283;-64
2021/12/06 01:54:25;;;;;;;1.90;1.30;;;-3.60;99.90;;;;;;2090180;28;20205;-65
2021/12/06 01:55:34;;;;;;;4.70;1.83;;;-3.60;99.90;;;;;;2089543;28;20198;-64
2021/12/06 01:56:35;;;;;;;2.63;1.90;;;-3.60;99.90;;;;;;2089185;28;20238;-66
2021/12/06 01:57:36;;;;;;;2.92;1.92;;;-3.60;99.90;;;;;;2090092;28;20187;-65
2021/12/06 01:58:37;;;;;;;2.33;1.60;;;-3.70;99.90;;;;;;2090088;28;20192;-65
2021/12/06 01:59:39;;;;;;;1.92;1.63;;;-3.70;99.90;;;;;;2090093;28;20190;-65
2021/12/06 02:00:51;;;;;;;4.07;2.08;;;-3.70;99.90;;;;;;2089961;28;20187;-65
2021/12/06 02:01:53;;;;;;;4.25;2.15;;;-3.70;99.90;;;;;;2089865;28;20719;-65
2021/12/06 02:02:54;;;;;;;5.78;2.35;;;-3.80;99.90;;;;;;2089427;28;20198;-64
2021/12/06 02:03:55;;;;;;;3.30;1.98;;;-3.80;99.90;;;;;;2089402;28;20708;-65
2021/12/06 02:04:56;;;;;;;3.80;2.40;;;-3.80;99.90;;;;;;2090079;28;20177;-64
2021/12/06 02:05:57;;;;;;;4.00;2.50;;;-3.80;99.90;;;;;;2089871;28;20262;-65
2021/12/06 02:06:59;;;;;;;2.97;2.17;;;-3.70;99.90;;;;;;2089920;28;20211;-65
2021/12/06 02:08:00;;;;;;;5.22;2.80;;;-3.70;99.90;;;;;;2089270;28;20646;-65
2021/12/06 02:09:05;;;;;;;3.10;2.28;;;-3.70;99.90;;;;;;2089408;28;20679;-65
2021/12/06 02:10:07;;;;;;;3.35;2.53;;;-3.60;99.90;;;;;;2089395;28;20655;-65
2021/12/06 02:11:09;;;;;;;4.70;2.72;;;-3.60;99.90;;;;;;2089425;28;20302;-63
2021/12/06 02:12:11;;;;;;;5.15;2.88;;;-3.50;99.90;;;;;;2089926;28;20179;-66
2021/12/06 02:13:12;;;;;;;5.53;3.00;;;-3.40;99.90;;;;;;2089381;28;20194;-65
2021/12/06 02:14:26;;;;;;;6.45;2.92;;;-3.30;99.90;;;;;;2081158;28;20266;-65
2021/12/06 02:15:38;;;;;;;6.63;2.75;;;-3.30;99.90;;;;;;2082948;28;20210;-65
2021/12/06 02:16:54;;;;;;;4.90;2.00;;;-3.20;99.90;;;;;;2084006;28;20198;-65
2021/12/06 02:18:05;;;;;;;2.45;1.60;;;-3.10;99.90;;;;;;2084586;28;20174;-65
2021/12/06 02:19:06;;;;;;;2.55;1.70;;;-3.00;99.90;;;;;;2089554;28;20216;-65
2021/12/06 02:20:22;;;;;;;3.08;1.45;;;-3.00;99.90;;;;;;2089942;28;20273;-65
2021/12/06 02:21:31;;;;;;;2.22;1.55;;;-2.90;99.90;;;;;;2089903;28;20163;-65
2021/12/06 02:22:36;;;;;;;2.33;1.70;;;-2.90;99.90;;;;;;2090054;28;20687;-66
2021/12/06 02:23:37;;;;;;;2.13;1.50;;;-2.80;99.90;;;;;;2089125;28;20198;-65
2021/12/06 02:24:38;;;;;;;2.22;1.60;;;-2.70;99.90;;;;;;2089174;28;20189;-65
2021/12/06 02:25:39;;;;;;;2.13;1.65;;;-2.70;99.90;;;;;;2089911;28;20206;-65
2021/12/06 02:26:42;;;;;;;2.53;1.60;;;-2.60;99.90;;;;;;2089495;28;20192;-65
2021/12/06 02:27:45;;;;;;;2.40;1.63;;;-2.60;99.90;;;;;;2089921;28;20179;-65
2021/12/06 02:28:47;;;;;;;3.08;1.50;;;-2.50;99.90;;;;;;2089764;28;20274;-68
2021/12/06 02:29:51;;;;;;;2.17;1.85;;;-2.50;99.90;;;;;;2090039;28;20269;-65
2021/12/06 02:30:51;;;;;;;1.65;1.40;;;-2.50;99.60;;;;;;2089067;28;20600;-65
2021/12/06 02:31:52;;;;;;;2.10;1.33;;;-2.50;99.40;;;;;;2089281;28;20217;-65
2021/12/06 02:32:53;;;;;;;1.80;1.23;;;-2.50;99.40;;;;;;2089795;28;20190;-65
2021/12/06 02:33:55;;;;;;;1.27;1.17;;;-2.40;99.40;;;;;;2089757;28;20186;-65
2021/12/06 02:34:57;;;;;;;1.30;1.02;;;-2.40;99.40;;;;;;2088918;28;20282;-65
2021/12/06 02:35:59;;;;;;;3.35;0.95;;;-2.40;99.50;;;;;;2081139;28;20600;-65
2021/12/06 02:37:00;;;;;;;1.60;1.38;;;-2.30;99.40;;;;;;2088754;28;20256;-65
2021/12/06 02:38:03;;;;;;;2.00;1.20;;;-2.30;99.40;;;;;;2089741;28;20183;-65
2021/12/06 02:39:08;;;;;;;1.48;1.10;;;-2.30;99.50;;;;;;2089009;28;20205;-65
2021/12/06 02:40:22;;;;;;;1.70;1.20;;;-2.20;99.20;;;;;;2089162;28;20641;-65
2021/12/06 02:41:23;;;;;;;1.55;1.23;;;-2.20;99.20;;;;;;2089166;28;20275;-64
2021/12/06 02:42:25;;;;;;;2.73;1.40;;;-2.20;99.50;;;;;;2089148;28;20230;-65
2021/12/06 02:43:26;;;;;;;2.15;1.15;;;-2.10;99.50;;;;;;2089671;28;20180;-65
2021/12/06 02:44:28;;;;;;;1.20;1.10;;;-2.10;99.40;;;;;;2089700;28;20270;-65
2021/12/06 02:45:29;;;;;;;1.70;1.20;;;-2.10;99.20;;;;;;2088938;28;20183;-65
2021/12/06 02:46:30;;;;;;;2.03;1.25;;;-2.10;99.10;;;;;;2089030;28;20180;-63
2021/12/06 02:47:31;;;;;;;2.83;1.43;;;-2.10;99.00;;;;;;2089647;28;20663;-64
2021/12/06 02:48:32;;;;;;;1.30;1.20;;;-2.00;99.00;;;;;;2089761;28;20267;-65
2021/12/06 02:49:33;;;;;;;1.65;1.00;;;-1.90;99.10;;;;;;2089538;28;20672;-64
2021/12/06 02:50:43;;;;;;;1.07;0.90;;;-1.90;99.00;;;;;;2089582;28;20180;-64
2021/12/06 02:51:44;;;;;;;1.67;1.02;;;-1.90;98.90;;;;;;2088983;28;20444;-65
2021/12/06 02:52:45;;;;;;;1.60;1.40;;;-1.80;98.90;;;;;;2089704;28;20235;-65
2021/12/06 02:53:46;;;;;;;2.90;1.27;;;-1.90;98.80;;;;;;2089526;28;20191;-65
2021/12/06 02:54:55;;;;;;;1.98;1.30;;;-1.80;98.70;;;;;;2088873;28;20183;-66
2021/12/06 02:56:06;;;;;;;3.42;1.20;;;-1.80;98.60;;;;;;2081484;28;20660;-64
2021/12/06 02:58:45;;;;;;;1.30;1.00;;;-1.80;98.50;;;;;;2088802;28;20614;-64
2021/12/06 02:59:46;;;;;;;1.52;1.10;;;-1.70;98.50;;;;;;2088975;28;20658;-65
2021/12/06 03:00:55;;;;;;;1.38;1.27;;;-1.70;98.40;;;;;;2089565;28;20187;-65
2021/12/06 03:02:03;;;;;;;1.55;1.35;;;-1.70;98.30;;;;;;2087514;28;20192;-64
2021/12/06 03:03:04;;;;;;;2.10;1.20;;;-1.70;98.20;;;;;;2089564;28;20669;-64
2021/12/06 03:04:07;;;;;;;2.53;1.30;;;-1.70;98.10;;;;;;2089670;28;20176;-65
2021/12/06 03:05:08;;;;;;;1.33;1.10;;;-1.70;98.10;;;;;;2089813;28;20186;-63
2021/12/06 03:06:09;;;;;;;1.55;1.20;;;-1.70;98.20;;;;;;2088901;28;20288;-65
2021/12/06 03:07:10;;;;;;;1.73;1.10;;;-1.70;98.20;;;;;;2088706;28;20224;-65
2021/12/06 03:08:11;;;;;;;1.73;1.30;;;-1.70;98.10;;;;;;2088829;28;20175;-65
2021/12/06 03:09:20;;;;;;;1.65;1.13;;;-1.70;98.10;;;;;;2089499;28;20179;-64
2021/12/06 03:10:21;;;;;;;2.17;1.13;;;-1.70;97.80;;;;;;2089522;28;20174;-65
2021/12/06 03:11:43;;;;;;;1.53;1.07;;;-1.70;97.80;;;;;;2089531;28;20225;-64
2021/12/06 03:12:44;;;;;;;2.20;0.93;;;-1.70;97.90;;;;;;2089502;28;20636;-65
2021/12/06 03:13:45;;;;;;;1.93;1.20;;;-1.60;98.00;;;;;;2089517;28;20184;-64
2021/12/06 03:14:51;;;;;;;1.48;1.10;;;-1.70;98.10;;;;;;2089406;28;20179;-64
2021/12/06 03:15:52;;;;;;;2.13;1.30;;;-1.70;98.30;;;;;;2089567;28;20583;-64
2021/12/06 03:16:56;;;;;;;3.27;1.30;;;-1.70;98.60;;;;;;2089297;28;20203;-65
2021/12/06 03:17:57;;;;;;;2.53;1.20;;;-1.70;98.50;;;;;;2089568;28;20183;-65
2021/12/06 03:18:58;;;;;;;2.00;1.25;;;-1.70;98.40;;;;;;2088907;28;20184;-65
2021/12/06 03:20:01;;;;;;;2.72;1.17;;;-1.60;98.20;;;;;;2088690;28;20672;-65
2021/12/06 03:21:03;;;;;;;2.05;1.10;;;-1.60;98.30;;;;;;2089555;28;20248;-65
2021/12/06 03:22:08;;;;;;;1.20;1.10;;;-1.60;98.20;;;;;;2089617;28;20183;-65
2021/12/06 03:23:08;;;;;;;1.85;0.90;;;-1.60;98.20;;;;;;2089646;28;20549;-65
2021/12/06 03:24:10;;;;;;;0.80;0.80;;;-1.60;98.50;;;;;;2089532;28;20180;-65
2021/12/06 03:25:14;;;;;;;1.48;0.82;;;-1.60;98.60;;;;;;2089387;28;20184;-65
2021/12/06 03:26:15;;;;;;;1.33;0.90;;;-1.60;98.70;;;;;;2088897;28;20191;-65
2021/12/06 03:27:18;;;;;;;0.80;0.80;;;-1.50;98.80;;;;;;2088559;28;20200;-64
2021/12/06 03:28:18;;;;;;;0.90;0.68;;;-1.50;98.90;;;;;;2089465;28;20633;-64
2021/12/06 03:29:21;;;;;;;1.00;0.80;;;-1.50;98.90;;;;;;2089416;28;20187;-65
2021/12/06 03:30:21;;;;;;;1.08;0.80;;;-1.40;99.10;;;;;;2089536;28;20626;-65
2021/12/06 03:31:26;;;;;;;1.03;0.70;;;-1.30;98.90;;;;;;2089369;28;20187;-64
2021/12/06 03:32:27;;;;;;;2.67;1.00;;;-1.30;98.80;;;;;;2088834;28;20580;-66
2021/12/06 03:33:27;;;;;;;0.77;0.70;;;-1.20;98.80;;;;;;2088724;28;20192;-65
2021/12/06 03:34:29;;;;;;;0.60;0.60;;;-1.30;98.90;;;;;;2089384;28;20176;-64
2021/12/06 03:35:30;;;;;;;0.90;0.73;;;-1.20;98.90;;;;;;2089361;28;20285;-63
2021/12/06 03:36:35;;;;;;;0.73;0.73;;;-1.20;98.90;;;;;;2089200;28;20211;-63
2021/12/06 03:37:36;;;;;;;0.88;0.73;;;-1.20;98.30;;;;;;2088826;28;20176;-65
2021/12/06 03:38:38;;;;;;;1.83;0.80;;;-1.20;98.40;;;;;;2089605;28;20184;-65
2021/12/06 03:39:44;;;;;;;1.42;1.05;;;-1.30;98.30;;;;;;2091242;28;20179;-64
2021/12/06 03:40:45;;;;;;;1.50;1.10;;;-1.40;97.80;;;;;;2091535;28;20165;-64
2021/12/06 03:41:46;;;;;;;1.40;1.10;;;-1.40;98.10;;;;;;2090957;28;20671;-64
2021/12/06 03:42:47;;;;;;;1.10;1.00;;;-1.50;98.10;;;;;;2090777;28;20538;-64
2021/12/06 03:43:48;;;;;;;1.00;0.70;;;-1.50;98.20;;;;;;2091491;28;20223;-65
2021/12/06 03:44:49;;;;;;;0.98;0.82;;;-1.40;98.20;;;;;;2090293;28;20198;-65
2021/12/06 03:45:51;;;;;;;0.75;0.70;;;-1.40;98.20;;;;;;2088459;28;20209;-64
2021/12/06 03:46:59;;;;;;;1.00;0.90;;;-1.40;98.30;;;;;;2088397;28;20261;-65
2021/12/06 03:48:00;;;;;;;1.20;0.70;;;-1.40;98.30;;;;;;2089167;28;20175;-64
2021/12/06 03:49:16;;;;;;;2.40;0.80;;;-1.40;98.30;;;;;;2088626;28;20195;-64
2021/12/06 03:50:17;;;;;;;1.88;1.05;;;-1.40;98.30;;;;;;2088773;28;20175;-63
2021/12/06 03:51:19;;;;;;;1.70;0.90;;;-1.40;98.30;;;;;;2089266;28;20644;-65
2021/12/06 03:52:20;;;;;;;1.60;0.90;;;-1.50;98.20;;;;;;2089231;28;20738;-65
2021/12/06 03:53:21;;;;;;;1.58;0.95;;;-1.50;98.10;;;;;;2088615;28;20688;-64
2021/12/06 03:54:27;;;;;;;1.00;0.90;;;-1.50;98.10;;;;;;2088506;28;20245;-64
2021/12/06 03:55:28;;;;;;;0.60;0.60;;;-1.60;98.00;;;;;;2089209;28;20635;-64
2021/12/06 03:56:29;;;;;;;1.63;1.20;;;-1.60;98.10;;;;;;2089017;28;20212;-64
2021/12/06 03:57:29;;;;;;;2.37;0.93;;;-1.60;98.20;;;;;;2088497;28;20235;-64
2021/12/06 03:58:31;;;;;;;1.93;0.80;;;-1.60;98.20;;;;;;2088628;28;20607;-65
2021/12/06 03:59:32;;;;;;;1.13;0.93;;;-1.60;98.40;;;;;;2086606;28;20187;-65
2021/12/06 04:00:34;;;;;;;1.17;0.80;;;-1.60;98.60;;;;;;2088516;28;20535;-64
2021/12/06 04:01:35;;;;;;;1.08;0.98;;;-1.60;98.70;;;;;;2080340;28;20223;-65
2021/12/06 04:02:37;;;;;;;3.42;0.80;;;-1.70;98.80;;;;;;2080454;28;20192;-65
2021/12/06 04:03:42;;;;;;;1.02;0.85;;;-1.70;98.90;;;;;;2080835;28;20186;-64
2021/12/06 04:04:43;;;;;;;1.67;1.02;;;-1.70;99.20;;;;;;2082641;28;20207;-64
2021/12/06 04:05:45;;;;;;;1.23;0.90;;;-1.70;99.40;;;;;;2082404;28;20641;-65
2021/12/06 04:06:46;;;;;;;1.00;0.90;;;-1.70;99.50;;;;;;2082146;28;20244;-64
2021/12/06 04:07:47;;;;;;;1.58;0.85;;;-1.70;99.60;;;;;;2082424;28;20185;-63
2021/12/06 04:08:49;;;;;;;1.40;0.70;;;-1.70;99.60;;;;;;2082582;28;20555;-65
2021/12/06 04:09:50;;;;;;;3.28;1.17;;;-1.70;99.60;;;;;;2082516;28;20191;-64
2021/12/06 04:10:51;;;;;;;1.70;1.00;;;-1.70;99.60;;;;;;2081688;28;20276;-63
2021/12/06 04:11:52;;;;;;;1.27;0.90;;;-1.60;99.50;;;;;;2082036;28;20205;-65
2021/12/06 04:13:00;;;;;;;1.47;0.90;;;-1.60;99.50;;;;;;2082605;28;20196;-64
2021/12/06 04:14:03;;;;;;;3.00;1.00;;;-1.60;99.60;;;;;;2081773;28;20215;-63
2021/12/06 04:15:07;;;;;;;2.22;1.02;;;-1.60;99.60;;;;;;2082144;28;20216;-63
2021/12/06 04:16:08;;;;;;;1.02;0.90;;;-1.60;99.70;;;;;;2081577;28;20184;-64
2021/12/06 04:17:12;;;;;;;0.80;0.80;;;-1.50;99.70;;;;;;2081643;28;20212;-63
2021/12/06 04:18:13;;;;;;;0.85;0.85;;;-1.50;99.70;;;;;;2082442;28;20177;-65
2021/12/06 04:19:15;;;;;;;2.33;1.20;;;-1.50;99.70;;;;;;2082598;28;20275;-65
2021/12/06 04:20:16;;;;;;;1.10;1.00;;;-1.40;99.70;;;;;;2090156;28;20418;-64
2021/12/06 04:21:19;;;;;;;1.60;0.90;;;-1.40;99.60;;;;;;2089810;28;20244;-64
2021/12/06 04:22:21;;;;;;;2.65;1.05;;;-1.40;99.60;;;;;;2081652;28;20173;-64
2021/12/06 04:23:22;;;;;;;0.93;0.80;;;-1.30;99.60;;;;;;2081688;28;20176;-63
2021/12/06 04:24:23;;;;;;;0.60;0.60;;;-1.30;99.50;;;;;;2082354;28;20177;-64
2021/12/06 04:25:24;;;;;;;1.50;0.90;;;-1.30;99.50;;;;;;2082382;28;20251;-64
2021/12/06 04:26:25;;;;;;;1.55;1.02;;;-1.30;99.40;;;;;;2082299;28;20185;-65
2021/12/06 04:27:26;;;;;;;2.08;0.90;;;-1.20;99.40;;;;;;2082127;28;20179;-64
2021/12/06 04:28:30;;;;;;;1.35;0.98;;;-1.20;99.30;;;;;;2082301;28;20189;-65
2021/12/06 04:29:30;;;;;;;0.90;0.90;;;-1.20;99.30;;;;;;2090069;28;20188;-65
2021/12/06 04:30:34;;;;;;;4.17;1.03;;;-1.20;99.10;;;;;;2089573;28;20827;-65
2021/12/06 04:31:44;;;;;;;1.85;0.98;;;-1.10;99.10;;;;;;2082393;28;20236;-65
2021/12/06 04:32:46;;;;;;;1.02;0.93;;;-1.10;99.00;;;;;;2082255;28;20176;-64
2021/12/06 04:33:46;;;;;;;1.05;0.95;;;-1.20;99.00;;;;;;2081664;28;20424;-65
2021/12/06 04:34:47;;;;;;;2.30;0.90;;;-1.20;99.10;;;;;;2081714;28;20222;-64
2021/12/06 04:35:48;;;;;;;2.33;1.00;;;-1.20;99.10;;;;;;2089979;28;20176;-65
2021/12/06 04:36:50;;;;;;;1.03;0.93;;;-1.20;99.10;;;;;;2089488;28;20208;-65
2021/12/06 04:37:53;;;;;;;4.03;1.05;;;-1.20;99.10;;;;;;2082164;28;20276;-65
2021/12/06 04:38:54;;;;;;;1.02;0.93;;;-1.20;99.20;;;;;;2089912;28;20187;-65
2021/12/06 04:39:54;;;;;;;1.17;0.80;;;-1.20;99.30;;;;;;2081684;28;20180;-64
2021/12/06 04:40:55;;;;;;;2.33;1.00;;;-1.10;99.30;;;;;;2081625;28;20265;-64
2021/12/06 04:41:56;;;;;;;2.73;0.90;;;-1.10;99.70;;;;;;2082355;28;20215;-63
2021/12/06 04:42:57;;;;;;;1.30;0.90;;;-1.10;99.10;;;;;;2082161;28;20173;-64
2021/12/06 04:43:58;;;;;;;0.73;0.73;;;-1.10;99.00;;;;;;2082204;28;20181;-65
2021/12/06 04:44:58;;;;;;;0.97;0.83;;;-1.10;99.00;;;;;;2082144;28;20180;-64
2021/12/06 04:45:59;;;;;;;2.90;0.80;;;-1.10;99.00;;;;;;2090289;28;20632;-65
2021/12/06 04:47:00;;;;;;;2.27;0.80;;;-1.10;99.00;;;;;;2090094;28;20211;-65
2021/12/06 04:48:03;;;;;;;1.60;1.00;;;-1.00;99.00;;;;;;2090547;28;20184;-65
2021/12/06 04:49:06;;;;;;;0.80;0.80;;;-1.00;98.90;;;;;;2090308;28;20644;-64
2021/12/06 04:50:09;;;;;;;1.23;0.70;;;-1.00;98.90;;;;;;2090504;28;20176;-65
2021/12/06 04:51:10;;;;;;;2.03;0.80;;;-1.00;99.00;;;;;;2090409;28;20195;-65
2021/12/06 04:52:14;;;;;;;0.95;0.70;;;-1.00;99.00;;;;;;2090505;28;20176;-65
2021/12/06 04:53:23;;;;;;;2.47;1.00;;;-1.00;99.00;;;;;;2089690;28;20172;-64
2021/12/06 04:54:31;;;;;;;1.55;0.88;;;-1.00;99.00;;;;;;2089892;28;20188;-64
2021/12/06 04:55:43;;;;;;;0.88;0.80;;;-0.90;98.90;;;;;;2089796;28;20330;-64
2021/12/06 04:56:53;;;;;;;1.73;1.10;;;-0.90;98.80;;;;;;2089686;28;20279;-65
2021/12/06 04:57:54;;;;;;;1.73;1.00;;;-0.90;98.80;;;;;;2090574;28;20184;-65
2021/12/06 04:59:33;;;;;;;1.67;0.93;;;-0.90;98.80;;;;;;2090586;28;20538;-64
2021/12/06 05:00:48;;;;;;;0.80;0.80;;;-1.00;98.70;;;;;;2081254;28;20944;-65
2021/12/06 05:01:53;;;;;;;0.82;0.80;;;-1.00;98.90;;;;;;2089753;28;20195;-64
2021/12/06 05:02:55;;;;;;;1.27;1.00;;;-1.00;98.90;;;;;;2089864;28;20176;-64
2021/12/06 05:04:01;;;;;;;1.73;0.90;;;-0.90;98.90;;;;;;2089958;28;20264;-65
2021/12/06 05:05:33;;;;;;;0.80;0.80;;;-0.90;98.80;;;;;;2089941;28;20640;-65
2021/12/06 05:06:39;;;;;;;1.15;1.00;;;-0.90;98.80;;;;;;2089371;28;20211;-65
2021/12/06 05:07:49;;;;;;;1.50;1.10;;;-0.90;98.70;;;;;;2090279;28;20251;-65
2021/12/06 05:08:55;;;;;;;2.05;1.13;;;-0.90;98.70;;;;;;2090466;28;20548;-65
2021/12/06 05:09:56;;;;;;;1.73;1.40;;;-0.80;98.70;;;;;;2089900;28;20562;-64
2021/12/06 05:10:59;;;;;;;1.17;1.00;;;-0.90;99.20;;;;;;2081879;28;20184;-64
2021/12/06 05:12:00;;;;;;;2.00;1.90;;;-0.90;98.90;;;;;;2090105;28;20688;-64
2021/12/06 05:13:02;;;;;;;1.60;1.40;;;-0.90;99.00;;;;;;2090660;28;20188;-65
2021/12/06 05:14:04;;;;;;;2.75;1.45;;;-0.90;99.20;;;;;;2089709;28;20200;-65
2021/12/06 05:15:07;;;;;;;1.70;0.90;;;-0.90;99.20;;;;;;2081680;28;20667;-65
2021/12/06 05:16:08;;;;;;;1.20;0.98;;;-0.90;99.30;;;;;;2089824;28;20192;-65
2021/12/06 05:17:08;;;;;;;1.03;0.93;;;-0.90;99.30;;;;;;2090221;28;20700;-65
2021/12/06 05:18:10;;;;;;;1.30;1.10;;;-0.80;99.10;;;;;;2090130;28;20260;-65
2021/12/06 05:19:11;;;;;;;2.05;1.10;;;-0.80;99.00;;;;;;2090287;28;20603;-64
2021/12/06 05:20:13;;;;;;;3.43;1.07;;;-0.80;99.00;;;;;;2089688;28;20185;-65
2021/12/06 05:21:14;;;;;;;1.23;1.10;;;-0.80;99.10;;;;;;2089697;28;20419;-65
2021/12/06 05:22:15;;;;;;;1.50;0.90;;;-0.70;99.10;;;;;;2090371;28;20264;-64
2021/12/06 05:23:16;;;;;;;3.10;1.10;;;-0.70;99.00;;;;;;2089972;28;20551;-65
2021/12/06 05:24:17;;;;;;;1.20;0.97;;;-0.70;99.00;;;;;;2081426;28;20717;-65
2021/12/06 05:25:22;;;;;;;2.55;1.17;;;-0.70;98.90;;;;;;2089519;28;20184;-65
2021/12/06 05:26:23;;;;;;;1.20;1.08;;;-0.70;98.90;;;;;;2089959;28;20561;-64
2021/12/06 05:27:28;;;;;;;2.15;1.50;;;-0.70;99.40;;;;;;2089347;28;20266;-64
2021/12/06 05:28:32;;;;;;;1.95;1.70;;;-0.70;98.80;;;;;;2089613;28;20311;-65
2021/12/06 05:29:36;;;;;;;2.38;1.58;;;-0.70;98.70;;;;;;2090149;28;20187;-64
2021/12/06 05:30:38;;;;;;;1.35;1.25;;;-0.70;98.50;;;;;;2090117;28;20271;-65
2021/12/06 05:31:41;;;;;;;1.48;1.00;;;-0.80;98.40;;;;;;2090009;28;20645;-64
2021/12/06 05:32:43;;;;;;;2.78;2.53;;;-0.80;98.40;;;;;;2090014;28;20190;-64
2021/12/06 05:33:47;;;;;;;2.38;1.77;;;-0.80;98.40;;;;;;2090268;28;20184;-65
2021/12/06 05:34:50;;;;;;;2.05;1.55;;;-0.80;98.60;;;;;;2090189;28;20263;-65
2021/12/06 05:35:50;;;;;;;5.68;3.15;;;-0.80;98.50;;;;;;2090173;28;20241;-65
2021/12/06 05:36:51;;;;;;;3.93;3.27;;;-0.80;98.50;;;;;;2089522;28;20625;-63
2021/12/06 05:37:56;;;;;;;5.23;3.07;;;-0.80;98.50;;;;;;2090089;28;20184;-65
2021/12/06 05:38:57;;;;;;;3.42;2.60;;;-0.80;99.00;;;;;;2090006;28;20815;-65
2021/12/06 05:39:58;;;;;;;3.50;2.33;;;-0.90;98.60;;;;;;2089996;28;20184;-65
2021/12/06 05:40:59;;;;;;;3.85;2.72;;;-0.90;98.70;;;;;;2089994;28;20172;-65
2021/12/06 05:42:10;;;;;;;2.95;2.25;;;-0.90;98.90;;;;;;2089934;28;20195;-65